Time;durP1;ratioP1;P1;durP2;ratioP2;P2;SDS_P1;SDS_P2;PMS_P1;PMS_P2;Temp;Humidity;BMP_temperature;BMP_pressure;BME280_temperature;BME280_humidity;BME280_pressure;Samples;Min_cycle;Max_cycle;Signal;HPM_P1;HPM_P2
2021/04/11 00:00:19;;;;;;;18.92;13.45;;;8.40;99.90;;;;;;5068368;28;20020;-69
2021/04/11 00:02:44;;;;;;;18.48;14.05;;;8.40;99.90;;;;;;5066857;28;20127;-70
2021/04/11 00:05:12;;;;;;;22.00;14.82;;;8.40;99.90;;;;;;5061141;28;20139;-70
2021/04/11 00:07:37;;;;;;;20.23;14.15;;;8.40;99.90;;;;;;5062488;28;20024;-70
2021/04/11 00:10:20;;;;;;;18.45;14.65;;;8.40;99.90;;;;;;5067065;28;20388;-70
2021/04/11 00:12:46;;;;;;;17.75;14.63;;;8.40;99.90;;;;;;5060731;28;20047;-70
2021/04/11 00:15:13;;;;;;;20.33;14.73;;;8.30;99.90;;;;;;5066846;28;20103;-71
2021/04/11 00:17:39;;;;;;;18.30;13.70;;;8.30;99.90;;;;;;5061035;28;20481;-71
2021/04/11 00:20:06;;;;;;;15.27;12.65;;;8.20;99.90;;;;;;5072025;28;20031;-71
2021/04/11 00:22:32;;;;;;;14.77;12.38;;;8.20;99.90;;;;;;5060124;28;20020;-71
2021/04/11 00:24:58;;;;;;;15.88;12.98;;;8.20;99.90;;;;;;5066141;28;20040;-71
2021/04/11 00:27:23;;;;;;;14.48;12.05;;;8.20;99.90;;;;;;5066552;28;20044;-71
2021/04/11 00:29:49;;;;;;;18.77;13.20;;;8.00;99.90;;;;;;5071433;28;20043;-71
2021/04/11 00:32:15;;;;;;;19.05;14.25;;;8.00;99.90;;;;;;5063781;28;20036;-71
2021/04/11 00:34:40;;;;;;;15.95;12.73;;;7.90;99.90;;;;;;5067639;28;20051;-71
2021/04/11 00:37:08;;;;;;;16.30;12.80;;;7.90;99.90;;;;;;5072046;28;20028;-71
2021/04/11 00:39:33;;;;;;;17.83;13.30;;;8.00;99.90;;;;;;5072154;28;20025;-71
2021/04/11 00:42:06;;;;;;;16.02;12.88;;;7.90;99.90;;;;;;5057742;28;20024;-71
2021/04/11 00:44:33;;;;;;;18.23;13.00;;;7.90;99.90;;;;;;5065020;28;20016;-70
2021/04/11 00:47:00;;;;;;;17.30;13.88;;;7.90;99.90;;;;;;5069534;28;20044;-71
2021/04/11 00:49:25;;;;;;;14.43;12.43;;;7.90;99.90;;;;;;5069014;28;20070;-71
2021/04/11 00:51:51;;;;;;;16.27;12.23;;;7.90;99.90;;;;;;5069607;28;20079;-71
2021/04/11 00:54:17;;;;;;;15.88;12.00;;;7.80;99.90;;;;;;5070374;28;20043;-71
2021/04/11 00:56:43;;;;;;;13.57;11.10;;;7.80;99.90;;;;;;5076154;28;20515;-71
2021/04/11 00:59:10;;;;;;;11.32;9.25;;;7.70;99.90;;;;;;5070618;28;20384;-71
2021/04/11 01:01:38;;;;;;;9.60;8.57;;;7.70;99.90;;;;;;5068136;28;20080;-71
2021/04/11 01:04:09;;;;;;;10.52;8.73;;;7.60;99.90;;;;;;5060522;28;20023;-71
2021/04/11 01:06:41;;;;;;;10.57;8.95;;;7.60;99.90;;;;;;5057925;28;20117;-71
2021/04/11 01:09:12;;;;;;;10.05;8.50;;;7.60;99.90;;;;;;5073925;28;20032;-71
2021/04/11 01:11:38;;;;;;;11.70;9.23;;;7.50;99.90;;;;;;5065406;28;20032;-71
2021/04/11 01:14:06;;;;;;;11.27;9.02;;;7.40;99.90;;;;;;5069841;28;20397;-71
2021/04/11 01:16:32;;;;;;;11.45;8.38;;;7.40;99.90;;;;;;5061786;28;20027;-71
2021/04/11 01:18:59;;;;;;;11.23;8.80;;;7.30;99.90;;;;;;5073132;28;20032;-70
2021/04/11 01:21:43;;;;;;;10.85;8.63;;;7.10;99.90;;;;;;5068102;28;20017;-70
2021/04/11 01:24:38;;;;;;;12.68;9.20;;;7.00;99.90;;;;;;5070945;28;20469;-70
2021/04/11 01:27:07;;;;;;;12.27;9.15;;;7.10;99.90;;;;;;5077437;28;20073;-70
2021/04/11 01:29:33;;;;;;;12.05;9.95;;;7.10;99.90;;;;;;5067516;28;20020;-70
2021/04/11 01:31:59;;;;;;;10.48;9.18;;;7.10;99.90;;;;;;5072961;28;20111;-70
2021/04/11 01:34:26;;;;;;;10.80;8.35;;;7.10;99.90;;;;;;5073041;28;20096;-70
2021/04/11 01:36:52;;;;;;;12.32;9.50;;;7.20;99.90;;;;;;5068582;28;20752;-70
2021/04/11 01:39:22;;;;;;;12.35;8.63;;;7.10;99.90;;;;;;5073477;28;20357;-71
2021/04/11 01:41:51;;;;;;;16.60;10.57;;;7.20;99.90;;;;;;5074113;28;20528;-70
2021/04/11 01:44:21;;;;;;;16.42;11.40;;;7.20;99.90;;;;;;5069101;28;20388;-70
2021/04/11 01:46:48;;;;;;;15.45;11.10;;;7.20;99.90;;;;;;5069951;28;20036;-70
2021/04/11 01:49:15;;;;;;;13.20;10.20;;;7.10;99.90;;;;;;5072207;28;20032;-70
2021/04/11 01:51:47;;;;;;;13.25;10.55;;;7.10;99.90;;;;;;5066912;28;20112;-69
2021/04/11 01:54:17;;;;;;;12.20;9.93;;;7.10;99.90;;;;;;5077198;28;20388;-70
2021/04/11 01:56:45;;;;;;;13.55;10.30;;;7.10;99.90;;;;;;5071718;28;20036;-70
2021/04/11 01:59:26;;;;;;;12.18;10.48;;;7.10;99.90;;;;;;5067092;28;20036;-70
2021/04/11 02:01:52;;;;;;;12.85;10.30;;;7.10;99.90;;;;;;5070461;28;20028;-70
2021/04/11 02:04:18;;;;;;;13.63;10.48;;;7.10;99.90;;;;;;5068637;28;20112;-70
2021/04/11 02:06:47;;;;;;;13.60;10.60;;;7.10;99.90;;;;;;5069388;28;20043;-71
2021/04/11 02:09:18;;;;;;;12.95;10.40;;;7.10;99.90;;;;;;5073577;28;20028;-70
2021/04/11 02:11:45;;;;;;;14.70;10.98;;;7.00;99.90;;;;;;5068292;28;20076;-70
2021/04/11 02:14:11;;;;;;;12.68;10.05;;;7.10;99.90;;;;;;5070716;28;20024;-70
2021/04/11 02:16:37;;;;;;;14.30;11.00;;;7.00;99.90;;;;;;5072701;28;20029;-70
2021/04/11 02:19:13;;;;;;;13.77;11.43;;;7.00;99.90;;;;;;5064392;28;20025;-70
2021/04/11 02:21:40;;;;;;;13.18;10.23;;;7.00;99.90;;;;;;5066292;28;20029;-70
2021/04/11 02:24:08;;;;;;;12.18;9.95;;;7.00;99.90;;;;;;5071494;28;20020;-70
2021/04/11 02:26:36;;;;;;;12.50;9.10;;;6.80;99.90;;;;;;5068700;28;20072;-70
2021/04/11 02:29:05;;;;;;;12.35;9.10;;;6.90;99.90;;;;;;5063601;28;20386;-70
2021/04/11 02:31:32;;;;;;;12.52;9.75;;;6.90;99.90;;;;;;5068276;28;20083;-70
2021/04/11 02:34:02;;;;;;;11.18;8.75;;;6.90;99.90;;;;;;5067002;28;20024;-70
2021/04/11 02:36:40;;;;;;;11.88;9.00;;;6.80;99.90;;;;;;5066802;28;20032;-70
2021/04/11 02:39:13;;;;;;;10.60;8.85;;;6.90;99.90;;;;;;5071032;28;20029;-70
2021/04/11 02:41:40;;;;;;;9.80;8.50;;;6.90;99.90;;;;;;5062789;28;20036;-70
2021/04/11 02:44:06;;;;;;;12.43;9.07;;;6.90;99.90;;;;;;5068720;28;20024;-70
2021/04/11 02:46:37;;;;;;;10.52;8.93;;;6.90;99.90;;;;;;5069535;28;20039;-69
2021/04/11 02:49:05;;;;;;;10.05;8.43;;;6.90;99.90;;;;;;5066794;28;20021;-70
2021/04/11 02:51:34;;;;;;;9.07;8.00;;;6.90;99.90;;;;;;5068797;28;20024;-71
2021/04/11 02:54:03;;;;;;;7.63;6.82;;;6.90;99.90;;;;;;5066617;28;20074;-71
2021/04/11 02:56:29;;;;;;;8.23;7.10;;;6.80;99.90;;;;;;5062198;28;20112;-70
2021/04/11 02:58:55;;;;;;;8.13;6.72;;;6.80;99.90;;;;;;5069553;28;20036;-70
2021/04/11 03:01:35;;;;;;;6.68;5.97;;;6.80;99.90;;;;;;5069542;28;20024;-70
2021/04/11 03:04:01;;;;;;;7.68;6.43;;;6.70;99.90;;;;;;5069866;28;20029;-70
2021/04/11 03:06:31;;;;;;;7.05;6.03;;;6.70;99.90;;;;;;5072473;28;20036;-70
2021/04/11 03:09:01;;;;;;;8.65;6.53;;;6.70;99.90;;;;;;5071120;28;20016;-70
2021/04/11 03:11:36;;;;;;;8.55;6.43;;;6.70;99.90;;;;;;5072112;28;20044;-70
2021/04/11 03:14:05;;;;;;;9.48;6.90;;;6.70;99.90;;;;;;5072339;28;20032;-70
2021/04/11 03:16:36;;;;;;;7.72;6.45;;;6.70;99.90;;;;;;5069241;28;20108;-70
2021/04/11 03:19:02;;;;;;;9.00;6.53;;;6.70;99.90;;;;;;5059278;28;20020;-69
2021/04/11 03:21:28;;;;;;;7.97;6.80;;;6.60;99.90;;;;;;5059568;28;20053;-70
2021/04/11 03:23:55;;;;;;;9.10;7.28;;;6.60;99.90;;;;;;5070202;28;20025;-70
2021/04/11 03:26:38;;;;;;;7.35;6.60;;;6.60;99.90;;;;;;5073193;28;20044;-70
2021/04/11 03:29:09;;;;;;;7.85;6.82;;;6.60;99.90;;;;;;5070521;28;20052;-70
2021/04/11 03:31:57;;;;;;;8.43;6.68;;;6.60;99.90;;;;;;5070862;28;20055;-70
2021/04/11 03:34:24;;;;;;;8.30;7.00;;;6.60;99.90;;;;;;5067913;28;20040;-70
2021/04/11 03:36:50;;;;;;;8.07;6.63;;;6.60;99.90;;;;;;5070492;28;20025;-70
2021/04/11 03:39:16;;;;;;;11.85;8.55;;;6.60;99.90;;;;;;5067107;28;20028;-69
2021/04/11 03:41:43;;;;;;;10.35;7.85;;;6.70;99.90;;;;;;5066245;28;20029;-69
2021/04/11 03:44:17;;;;;;;11.18;8.00;;;6.70;99.90;;;;;;5069288;28;20024;-69
2021/04/11 03:46:51;;;;;;;11.52;7.80;;;6.60;99.90;;;;;;5067450;28;20041;-70
2021/04/11 03:49:17;;;;;;;11.30;7.90;;;6.60;99.90;;;;;;5063810;28;20065;-70
2021/04/11 03:51:44;;;;;;;9.07;7.85;;;6.60;99.90;;;;;;5069854;28;20388;-70
2021/04/11 03:54:27;;;;;;;9.05;7.15;;;6.60;99.90;;;;;;5071334;28;20048;-70
2021/04/11 03:57:08;;;;;;;11.48;7.63;;;6.60;99.90;;;;;;5068864;28;20085;-70
2021/04/11 04:00:08;;;;;;;8.23;6.90;;;6.50;99.90;;;;;;5064275;28;20025;-70
2021/04/11 04:02:38;;;;;;;11.25;7.07;;;6.50;99.90;;;;;;5068341;28;20016;-70
2021/04/11 04:05:10;;;;;;;10.02;7.80;;;6.60;99.90;;;;;;5067676;28;20029;-70
2021/04/11 04:07:54;;;;;;;8.55;7.07;;;6.60;99.90;;;;;;5067364;28;20086;-70
2021/04/11 04:10:23;;;;;;;9.40;7.03;;;6.60;99.90;;;;;;5066580;28;20028;-70
2021/04/11 04:12:59;;;;;;;7.72;6.45;;;6.50;99.90;;;;;;5065997;28;20469;-69
2021/04/11 04:15:24;;;;;;;9.43;6.07;;;6.60;99.90;;;;;;5067648;28;20025;-70
2021/04/11 04:18:30;;;;;;;8.48;6.32;;;6.60;99.90;;;;;;5064371;28;20028;-70
2021/04/11 04:21:14;;;;;;;7.43;5.45;;;6.60;99.90;;;;;;5068698;28;20024;-71
2021/04/11 04:23:55;;;;;;;6.75;5.20;;;6.40;99.90;;;;;;5066400;28;20036;-70
2021/04/11 04:26:26;;;;;;;7.07;5.28;;;6.30;99.90;;;;;;5065748;28;20031;-70
2021/04/11 04:29:01;;;;;;;5.13;4.63;;;6.40;99.90;;;;;;5068901;28;20054;-70
2021/04/11 04:31:47;;;;;;;7.00;4.60;;;6.30;99.90;;;;;;5066141;28;20075;-69
2021/04/11 04:34:40;;;;;;;5.32;4.65;;;6.30;99.90;;;;;;5067073;28;20461;-69
2021/04/11 04:37:09;;;;;;;4.88;4.38;;;6.30;99.90;;;;;;5069395;28;20386;-70
2021/04/11 04:39:37;;;;;;;5.10;4.47;;;6.40;99.90;;;;;;5071337;28;20013;-70
2021/04/11 04:42:22;;;;;;;5.15;4.53;;;6.40;99.90;;;;;;5068647;28;20572;-70
2021/04/11 04:45:12;;;;;;;5.10;4.60;;;6.40;99.90;;;;;;5067089;28;20063;-70
2021/04/11 04:48:16;;;;;;;5.25;4.22;;;6.40;99.90;;;;;;5068534;28;20024;-70
2021/04/11 04:50:53;;;;;;;3.90;3.47;;;6.30;99.90;;;;;;5068622;28;20024;-70
2021/04/11 04:53:28;;;;;;;4.32;3.63;;;6.20;99.90;;;;;;5069709;28;20479;-71
2021/04/11 04:55:57;;;;;;;7.53;3.70;;;6.20;99.90;;;;;;5063336;28;20067;-70
2021/04/11 04:58:30;;;;;;;3.72;3.40;;;6.20;99.90;;;;;;5065954;28;20029;-70
2021/04/11 05:01:19;;;;;;;3.95;3.42;;;6.10;99.90;;;;;;5062533;28;20508;-70
2021/04/11 05:03:49;;;;;;;3.92;3.63;;;6.20;99.90;;;;;;5064450;28;20067;-70
2021/04/11 05:06:16;;;;;;;4.00;3.70;;;6.20;99.90;;;;;;5071673;28;20588;-70
2021/04/11 05:08:48;;;;;;;5.07;4.22;;;6.10;99.90;;;;;;5063440;28;20021;-71
2021/04/11 05:11:33;;;;;;;4.35;3.95;;;6.30;99.90;;;;;;5066581;28;20036;-70
2021/04/11 05:14:11;;;;;;;4.28;3.85;;;6.30;99.90;;;;;;5063773;28;20077;-70
2021/04/11 05:17:02;;;;;;;4.40;4.00;;;6.50;99.90;;;;;;5067305;28;20027;-70
2021/04/11 05:19:36;;;;;;;4.60;4.07;;;6.50;99.90;;;;;;5066211;28;20032;-70
2021/04/11 05:22:25;;;;;;;4.60;4.05;;;6.50;99.90;;;;;;5064299;28;20017;-70
2021/04/11 05:25:09;;;;;;;3.70;3.40;;;6.40;99.90;;;;;;5060159;28;20048;-70
2021/04/11 05:28:02;;;;;;;3.70;3.38;;;6.40;99.90;;;;;;5060654;28;20041;-70
2021/04/11 05:30:35;;;;;;;;;;;6.40;99.90;;;;;;5065412;28;20025;-69
2021/04/11 05:33:00;;;;;;;3.42;3.13;;;6.50;99.90;;;;;;5064696;28;19908;-69
2021/04/11 05:35:30;;;;;;;4.00;3.40;;;6.40;99.90;;;;;;5060156;28;20028;-69
2021/04/11 05:38:10;;;;;;;4.38;3.35;;;6.40;99.90;;;;;;5065238;28;20025;-70
2021/04/11 05:40:45;;;;;;;3.97;3.22;;;6.40;99.90;;;;;;5060306;28;20123;-70
2021/04/11 05:43:27;;;;;;;4.50;3.40;;;6.40;99.90;;;;;;5062937;28;20024;-70
2021/04/11 05:46:20;;;;;;;3.38;3.08;;;6.20;99.90;;;;;;5060784;28;20111;-69
2021/04/11 05:49:00;;;;;;;5.78;3.97;;;6.20;99.90;;;;;;5070082;28;20059;-69
2021/04/11 05:51:32;;;;;;;5.65;3.92;;;6.40;99.90;;;;;;5065534;28;20060;-69
2021/04/11 05:54:10;;;;;;;4.43;4.03;;;6.40;99.90;;;;;;5066932;28;20021;-70
2021/04/11 05:56:42;;;;;;;4.85;3.90;;;6.50;99.90;;;;;;5061350;28;20141;-71
2021/04/11 05:59:19;;;;;;;5.20;3.45;;;6.60;99.90;;;;;;5070341;28;20023;-70
2021/04/11 06:01:55;;;;;;;6.05;3.75;;;6.60;99.90;;;;;;5069502;28;20037;-69
2021/04/11 06:04:35;;;;;;;4.55;3.25;;;6.60;99.90;;;;;;5071059;28;20154;-70
2021/04/11 06:07:16;;;;;;;3.40;3.10;;;6.60;99.90;;;;;;5069231;28;20036;-69
2021/04/11 06:09:48;;;;;;;4.53;2.70;;;6.60;99.90;;;;;;5074699;28;20020;-70
2021/04/11 06:12:26;;;;;;;3.72;2.67;;;6.50;99.90;;;;;;5067812;28;20393;-70
2021/04/11 06:14:55;;;;;;;3.85;2.45;;;6.60;99.90;;;;;;5070501;28;20386;-70
2021/04/11 06:17:21;;;;;;;2.58;2.35;;;6.60;99.90;;;;;;5071144;28;20051;-70
2021/04/11 06:19:48;;;;;;;2.17;1.92;;;6.60;99.90;;;;;;5072029;28;20017;-69
2021/04/11 06:22:27;;;;;;;2.35;2.15;;;6.60;99.90;;;;;;5066921;28;20036;-70
2021/04/11 06:24:59;;;;;;;3.45;2.30;;;6.50;99.90;;;;;;5066109;28;20079;-69
2021/04/11 06:27:49;;;;;;;4.53;1.80;;;6.40;99.90;;;;;;5068124;28;20041;-69
2021/04/11 06:30:24;;;;;;;3.28;2.00;;;6.30;99.90;;;;;;5065335;28;20124;-69
2021/04/11 06:32:55;;;;;;;3.08;2.47;;;6.30;99.90;;;;;;5073489;28;20047;-69
2021/04/11 06:35:32;;;;;;;2.65;2.00;;;6.30;99.90;;;;;;5070431;28;20029;-70
2021/04/11 06:38:01;;;;;;;2.13;1.73;;;6.30;99.90;;;;;;5070319;28;20493;-70
2021/04/11 06:40:52;;;;;;;2.50;1.98;;;6.30;99.90;;;;;;5064722;28;20547;-70
2021/04/11 06:43:32;;;;;;;3.03;2.08;;;6.30;99.90;;;;;;5073737;28;20025;-70
2021/04/11 06:46:17;;;;;;;2.17;2.00;;;6.30;99.90;;;;;;5066806;28;20413;-69
2021/04/11 06:49:10;;;;;;;2.47;1.70;;;6.40;99.90;;;;;;5072973;28;20396;-70
2021/04/11 06:51:45;;;;;;;3.85;2.00;;;6.30;99.90;;;;;;5061569;28;20060;-69
2021/04/11 06:54:32;;;;;;;2.35;1.88;;;6.30;99.90;;;;;;5070868;28;20036;-69
2021/04/11 06:57:29;;;;;;;2.30;1.98;;;6.20;99.90;;;;;;5065092;28;20126;-69
2021/04/11 07:00:08;;;;;;;2.03;1.90;;;6.20;99.90;;;;;;5066724;28;20043;-69
2021/04/11 07:02:57;;;;;;;1.98;1.80;;;6.20;99.90;;;;;;5059752;28;20063;-69
2021/04/11 07:05:41;;;;;;;3.70;2.50;;;6.30;99.90;;;;;;5062984;28;20112;-68
2021/04/11 07:08:41;;;;;;;2.67;1.95;;;6.30;99.90;;;;;;5066493;28;20118;-70
2021/04/11 07:11:10;;;;;;;2.38;2.17;;;6.30;99.90;;;;;;5071145;28;20496;-70
2021/04/11 07:14:10;;;;;;;2.60;2.00;;;6.40;99.90;;;;;;5067136;28;20016;-70
2021/04/11 07:17:14;;;;;;;3.88;2.20;;;6.40;99.90;;;;;;5061422;28;20107;-70
2021/04/11 07:19:52;;;;;;;;;;;6.40;99.90;;;;;;5062178;28;20115;-70
2021/04/11 07:22:26;;;;;;;4.40;2.17;;;6.50;99.90;;;;;;5063802;28;19908;-69
2021/04/11 07:25:22;;;;;;;3.00;2.20;;;6.50;99.90;;;;;;5065542;28;20054;-70
2021/04/11 07:28:17;;;;;;;1.90;1.80;;;6.50;99.90;;;;;;5058502;28;20542;-70
2021/04/11 07:31:00;;;;;;;3.55;2.25;;;6.50;99.90;;;;;;5060089;28;20025;-70
2021/04/11 07:34:11;;;;;;;2.85;2.00;;;6.60;99.90;;;;;;5061374;28;20029;-70
2021/04/11 07:37:09;;;;;;;2.72;2.53;;;6.60;99.90;;;;;;5063154;28;20154;-70
2021/04/11 07:39:40;;;;;;;4.45;2.03;;;6.60;99.90;;;;;;5069876;28;20107;-70
2021/04/11 07:42:24;;;;;;;2.35;1.92;;;6.60;99.90;;;;;;5066289;28;20028;-70
2021/04/11 07:45:31;;;;;;;3.50;2.35;;;6.50;99.90;;;;;;5067468;28;20068;-69
2021/04/11 07:48:22;;;;;;;6.93;2.20;;;6.50;99.90;;;;;;5067961;28;20044;-69
2021/04/11 07:51:13;;;;;;;2.85;1.85;;;6.60;99.90;;;;;;5064532;28;20024;-69
2021/04/11 07:53:44;;;;;;;2.72;2.25;;;6.60;99.90;;;;;;5066396;28;20024;-69
2021/04/11 07:56:39;;;;;;;4.93;2.75;;;6.60;99.90;;;;;;5062783;28;20084;-68
2021/04/11 07:59:40;;;;;;;3.65;2.10;;;6.60;99.90;;;;;;5068662;28;20040;-69
2021/04/11 08:02:24;;;;;;;2.63;2.17;;;6.50;99.90;;;;;;5061831;28;20048;-70
2021/04/11 08:05:26;;;;;;;2.33;2.15;;;6.70;99.90;;;;;;5064812;28;20500;-69
2021/04/11 08:08:26;;;;;;;2.50;2.05;;;6.70;99.90;;;;;;5063429;28;20107;-70
2021/04/11 08:11:29;;;;;;;1.98;1.70;;;6.70;99.90;;;;;;5064934;28;20031;-70
2021/04/11 08:13:55;;;;;;;4.32;2.33;;;6.60;99.90;;;;;;5061831;28;20119;-69
2021/04/11 08:16:47;;;;;;;3.47;2.00;;;6.60;99.90;;;;;;5067388;28;20096;-69
2021/04/11 08:19:47;;;;;;;4.40;2.63;;;6.50;99.90;;;;;;5058328;28;20106;-70
2021/04/11 08:22:40;;;;;;;4.38;2.65;;;6.50;99.90;;;;;;5059925;28;20025;-69
2021/04/11 08:25:27;;;;;;;3.42;2.60;;;6.50;99.90;;;;;;5063196;28;20040;-69
2021/04/11 08:28:27;;;;;;;3.05;2.72;;;6.40;99.90;;;;;;5070942;28;20414;-70
2021/04/11 08:31:07;;;;;;;8.60;2.72;;;6.40;99.90;;;;;;5068378;28;20030;-70
2021/04/11 08:33:51;;;;;;;4.95;2.85;;;6.40;99.90;;;;;;5062152;28;20025;-69
2021/04/11 08:36:33;;;;;;;3.47;3.00;;;6.40;99.90;;;;;;5068913;28;20048;-69
2021/04/11 08:39:17;;;;;;;3.00;2.63;;;6.40;99.90;;;;;;5068924;28;20027;-69
2021/04/11 08:41:57;;;;;;;3.47;2.80;;;6.40;99.90;;;;;;5063040;28;20079;-70
2021/04/11 08:44:40;;;;;;;5.38;2.67;;;6.40;99.90;;;;;;5069912;28;20044;-69
2021/04/11 08:47:14;;;;;;;2.72;2.30;;;6.50;99.90;;;;;;5068299;28;20068;-69
2021/04/11 08:49:57;;;;;;;3.42;2.05;;;6.60;99.90;;;;;;5066913;28;20428;-69
2021/04/11 08:52:43;;;;;;;2.30;2.03;;;6.60;99.90;;;;;;5060494;28;20031;-69
2021/04/11 08:55:32;;;;;;;4.10;2.20;;;6.60;99.90;;;;;;5065924;28;20071;-70
2021/04/11 08:58:28;;;;;;;3.50;2.03;;;6.80;99.90;;;;;;5069049;28;20082;-69
2021/04/11 09:01:27;;;;;;;4.18;2.05;;;6.90;99.90;;;;;;5072439;28;20025;-70
2021/04/11 09:04:13;;;;;;;5.78;2.20;;;7.00;99.90;;;;;;5066892;28;20067;-70
2021/04/11 09:07:16;;;;;;;2.65;2.30;;;7.10;99.90;;;;;;5068172;28;20037;-69
2021/04/11 09:10:03;;;;;;;6.57;2.22;;;7.20;99.90;;;;;;5062064;28;20020;-69
2021/04/11 09:13:09;;;;;;;2.63;2.15;;;7.40;99.90;;;;;;5063004;28;20029;-69
2021/04/11 09:15:50;;;;;;;3.38;2.08;;;7.40;99.90;;;;;;5063219;28;20036;-69
2021/04/11 09:18:28;;;;;;;3.25;1.90;;;7.30;99.90;;;;;;5065754;28;20035;-70
2021/04/11 09:21:32;;;;;;;4.38;2.00;;;7.30;99.90;;;;;;5063803;28;20111;-70
2021/04/11 09:24:34;;;;;;;3.65;1.92;;;7.30;99.90;;;;;;5064667;28;20047;-70
2021/04/11 09:26:59;;;;;;;3.33;2.10;;;7.20;99.90;;;;;;5065174;28;20049;-70
2021/04/11 09:30:02;;;;;;;1.60;1.50;;;7.20;99.90;;;;;;5067533;28;20031;-70
2021/04/11 09:32:51;;;;;;;3.63;1.98;;;7.30;99.90;;;;;;5059781;28;20039;-71
2021/04/11 09:35:33;;;;;;;2.20;2.00;;;7.40;99.90;;;;;;5060418;28;20036;-70
2021/04/11 09:38:44;;;;;;;2.20;1.63;;;7.50;99.90;;;;;;5065230;28;20118;-70
2021/04/11 09:41:13;;;;;;;3.05;1.40;;;7.50;99.90;;;;;;5063642;28;20072;-71
2021/04/11 09:44:00;;;;;;;3.22;1.90;;;7.50;99.90;;;;;;5071312;28;20029;-71
2021/04/11 09:46:35;;;;;;;4.22;2.00;;;7.50;99.90;;;;;;5067167;28;20079;-70
2021/04/11 09:49:55;;;;;;;5.18;1.88;;;7.50;99.90;;;;;;5068007;28;20028;-69
2021/04/11 09:52:44;;;;;;;6.10;2.25;;;7.50;99.90;;;;;;5075346;28;20039;-70
2021/04/11 09:55:30;;;;;;;2.67;2.42;;;7.60;99.90;;;;;;5066400;28;20032;-68
2021/04/11 09:58:01;;;;;;;3.80;2.28;;;7.70;99.90;;;;;;5068290;28;20051;-69
2021/04/11 10:00:33;;;;;;;5.68;2.35;;;7.60;99.90;;;;;;5070167;28;20029;-69
2021/04/11 10:03:20;;;;;;;4.20;3.00;;;7.60;99.90;;;;;;5072981;28;20027;-69
2021/04/11 10:06:05;;;;;;;6.50;3.15;;;7.60;99.90;;;;;;5064619;28;20493;-69
2021/04/11 10:08:51;;;;;;;3.30;2.97;;;7.70;99.90;;;;;;5069015;28;20032;-69
2021/04/11 10:11:38;;;;;;;4.70;2.60;;;7.60;99.90;;;;;;5065986;28;20024;-69
2021/04/11 10:14:32;;;;;;;4.18;2.13;;;7.60;99.90;;;;;;5069499;28;20029;-69
2021/04/11 10:17:35;;;;;;;2.10;1.83;;;7.50;99.90;;;;;;5070230;28;20123;-69
2021/04/11 10:20:25;;;;;;;3.33;1.90;;;7.70;99.90;;;;;;5066661;28;20040;-69
2021/04/11 10:23:11;;;;;;;4.72;1.90;;;7.70;99.90;;;;;;5067805;28;20024;-69
2021/04/11 10:25:42;;;;;;;4.45;1.73;;;7.60;99.90;;;;;;5063257;28;20102;-69
2021/04/11 10:28:14;;;;;;;2.50;1.60;;;7.60;99.90;;;;;;5072248;28;20033;-68
2021/04/11 10:30:42;;;;;;;4.10;1.65;;;7.70;99.90;;;;;;5071623;28;20028;-69
2021/04/11 10:33:17;;;;;;;3.72;1.58;;;7.60;99.90;;;;;;5066458;28;20062;-70
2021/04/11 10:35:49;;;;;;;1.70;1.55;;;7.60;99.90;;;;;;5066256;28;20032;-70
2021/04/11 10:38:24;;;;;;;2.17;1.48;;;7.60;99.90;;;;;;5061834;28;20063;-70
2021/04/11 10:41:31;;;;;;;1.30;1.20;;;7.60;99.90;;;;;;5066161;28;20062;-70
2021/04/11 10:44:08;;;;;;;2.22;1.40;;;7.70;99.90;;;;;;5070935;28;20036;-70
2021/04/11 10:46:55;;;;;;;5.68;1.48;;;7.70;99.90;;;;;;5067560;28;20036;-70
2021/04/11 10:49:42;;;;;;;2.13;1.00;;;7.70;99.90;;;;;;5071935;28;20036;-68
2021/04/11 10:52:26;;;;;;;3.83;1.20;;;7.80;99.90;;;;;;5068619;28;20032;-69
2021/04/11 10:55:16;;;;;;;4.55;1.58;;;7.70;99.90;;;;;;5063820;28;20064;-68
2021/04/11 10:58:07;;;;;;;4.93;2.00;;;7.80;99.90;;;;;;5063141;28;20029;-68
2021/04/11 11:00:45;;;;;;;2.47;1.80;;;7.80;99.90;;;;;;5070301;28;20068;-68
2021/04/11 11:03:26;;;;;;;5.75;2.00;;;7.90;99.90;;;;;;5063068;28;20047;-68
2021/04/11 11:06:23;;;;;;;3.63;1.92;;;7.90;99.90;;;;;;5063008;28;20040;-69
2021/04/11 11:09:02;;;;;;;2.05;1.85;;;7.90;99.90;;;;;;5066573;28;20039;-68
2021/04/11 11:11:47;;;;;;;3.28;1.92;;;8.00;99.90;;;;;;5069639;28;20108;-69
2021/04/11 11:14:37;;;;;;;5.93;1.67;;;8.00;99.90;;;;;;5066234;28;20024;-70
2021/04/11 11:17:11;;;;;;;2.97;1.65;;;8.00;99.90;;;;;;5063651;28;20029;-68
2021/04/11 11:19:53;;;;;;;7.85;1.65;;;8.10;99.90;;;;;;5067204;28;20066;-68
2021/04/11 11:22:57;;;;;;;3.47;1.67;;;8.10;99.90;;;;;;5064091;28;20036;-68
2021/04/11 11:25:44;;;;;;;6.25;1.60;;;8.10;99.90;;;;;;5068550;28;20050;-69
2021/04/11 11:28:09;;;;;;;5.25;1.65;;;8.20;99.90;;;;;;5060555;28;20435;-68
2021/04/11 11:30:51;;;;;;;5.13;1.60;;;8.20;99.90;;;;;;5068903;28;20036;-68
2021/04/11 11:33:24;;;;;;;4.05;1.92;;;8.30;99.90;;;;;;5079034;28;20060;-69
2021/04/11 11:36:08;;;;;;;4.53;1.80;;;8.30;99.90;;;;;;5066207;28;20017;-68
2021/04/11 11:38:43;;;;;;;6.10;1.80;;;8.30;99.90;;;;;;5061483;28;20083;-68
2021/04/11 11:41:18;;;;;;;1.92;1.60;;;8.30;99.90;;;;;;5066975;28;20028;-68
2021/04/11 11:44:03;;;;;;;3.28;1.85;;;8.40;99.90;;;;;;5064167;28;20036;-68
2021/04/11 11:47:03;;;;;;;6.03;1.95;;;8.60;99.90;;;;;;5068763;28;20040;-68
2021/04/11 11:49:50;;;;;;;3.30;1.45;;;8.60;99.90;;;;;;5066710;28;20026;-68
2021/04/11 11:52:46;;;;;;;5.72;1.88;;;8.70;99.90;;;;;;5061503;28;20049;-68
2021/04/11 11:55:30;;;;;;;3.67;2.20;;;8.60;99.90;;;;;;5066052;28;20033;-68
2021/04/11 11:58:13;;;;;;;4.78;2.63;;;8.70;99.90;;;;;;5054134;28;20098;-69
2021/04/11 12:00:43;;;;;;;4.88;1.52;;;8.70;99.90;;;;;;5059029;28;20025;-70
2021/04/11 12:03:11;;;;;;;3.70;1.30;;;8.70;99.90;;;;;;5064249;28;20463;-69
2021/04/11 12:05:49;;;;;;;5.35;1.80;;;8.80;99.90;;;;;;5058791;28;20028;-69
2021/04/11 12:08:27;;;;;;;3.25;1.63;;;8.80;99.90;;;;;;5065114;28;20044;-69
2021/04/11 12:11:01;;;;;;;2.60;1.75;;;8.90;99.90;;;;;;5066088;28;22368;-69
2021/04/11 12:13:43;;;;;;;5.45;1.67;;;8.90;99.90;;;;;;5063753;28;20099;-70
2021/04/11 12:16:25;;;;;;;3.83;1.83;;;8.90;99.90;;;;;;5063297;28;20024;-70
2021/04/11 12:19:01;;;;;;;5.00;1.25;;;8.80;99.90;;;;;;5058945;28;20082;-69
2021/04/11 12:21:49;;;;;;;4.57;1.63;;;8.90;99.90;;;;;;5077214;28;20572;-69
2021/04/11 12:24:20;;;;;;;4.90;1.30;;;9.00;99.90;;;;;;5059418;28;20055;-69
2021/04/11 12:26:53;;;;;;;2.78;1.40;;;9.00;99.90;;;;;;5061405;28;20033;-69
2021/04/11 12:29:21;;;;;;;6.35;1.58;;;9.00;99.90;;;;;;5068376;28;20031;-68
2021/04/11 12:32:00;;;;;;;2.60;1.45;;;9.10;99.90;;;;;;5065276;28;20024;-69
2021/04/11 12:34:28;;;;;;;2.30;1.20;;;9.00;99.90;;;;;;5065879;28;20112;-69
2021/04/11 12:36:57;;;;;;;2.72;1.20;;;9.00;99.90;;;;;;5061325;28;20520;-69
2021/04/11 12:39:28;;;;;;;1.75;1.00;;;8.90;99.90;;;;;;5066022;28;20483;-70
2021/04/11 12:42:08;;;;;;;3.30;1.45;;;8.90;99.90;;;;;;5062878;28;20034;-69
2021/04/11 12:45:14;;;;;;;1.90;1.05;;;8.70;99.90;;;;;;5065579;28;20021;-68
2021/04/11 12:47:48;;;;;;;2.15;1.00;;;8.70;99.90;;;;;;5058407;28;20040;-68
2021/04/11 12:50:29;;;;;;;5.45;1.30;;;8.60;99.90;;;;;;5064972;28;20510;-69
2021/04/11 12:53:09;;;;;;;2.45;1.20;;;8.50;99.90;;;;;;5058342;28;20037;-69
2021/04/11 12:55:42;;;;;;;5.57;1.73;;;8.50;99.90;;;;;;5070916;28;20077;-70
2021/04/11 12:58:26;;;;;;;2.83;1.25;;;8.60;99.90;;;;;;5070050;28;20447;-70
2021/04/11 13:01:04;;;;;;;7.90;1.40;;;8.60;99.90;;;;;;5066854;28;20024;-69
2021/04/11 13:03:41;;;;;;;1.40;1.13;;;8.80;99.90;;;;;;5075790;28;20487;-68
2021/04/11 13:06:07;;;;;;;1.90;1.05;;;8.80;99.90;;;;;;5061455;28;20043;-68
2021/04/11 13:08:53;;;;;;;1.73;1.25;;;8.90;99.90;;;;;;5063728;28;20036;-69
2021/04/11 13:11:47;;;;;;;3.47;1.52;;;9.00;99.90;;;;;;5067461;28;20025;-68
2021/04/11 13:14:23;;;;;;;5.78;1.48;;;9.20;99.90;;;;;;5072201;28;20074;-69
2021/04/11 13:17:00;;;;;;;6.53;2.05;;;9.30;99.90;;;;;;5071808;28;20099;-69
2021/04/11 13:19:30;;;;;;;4.75;1.35;;;9.30;99.90;;;;;;5064952;28;20028;-70
2021/04/11 13:22:15;;;;;;;5.43;2.00;;;9.30;99.90;;;;;;5070223;28;20033;-69
2021/04/11 13:25:00;;;;;;;2.80;1.67;;;9.30;99.90;;;;;;5075029;28;20507;-68
2021/04/11 13:27:28;;;;;;;4.38;1.80;;;9.50;99.90;;;;;;5061142;28;20318;-68
2021/04/11 13:30:16;;;;;;;2.55;0.90;;;9.50;99.90;;;;;;5067833;28;20457;-68
2021/04/11 13:32:54;;;;;;;1.75;1.20;;;9.50;99.90;;;;;;5062640;28;20024;-69
2021/04/11 13:35:28;;;;;;;4.07;1.50;;;9.30;99.90;;;;;;5063873;28;20126;-68
2021/04/11 13:37:57;;;;;;;3.17;1.33;;;9.30;99.90;;;;;;5069626;28;20021;-70
2021/04/11 13:40:26;;;;;;;3.55;1.27;;;9.30;99.90;;;;;;5064625;28;20381;-69
2021/04/11 13:43:17;;;;;;;3.28;1.50;;;9.30;99.90;;;;;;5066815;28;20036;-69
2021/04/11 13:45:52;;;;;;;3.30;1.00;;;9.20;99.90;;;;;;5065923;28;20065;-69
2021/04/11 13:48:33;;;;;;;3.60;0.90;;;9.10;99.90;;;;;;5069084;28;20519;-69
2021/04/11 13:51:17;;;;;;;4.43;1.00;;;9.00;99.90;;;;;;5067897;28;20029;-69